sensor_id;sensor_type;location;lat;lon;timestamp;P1;durP1;ratioP1;P2;durP2;ratioP2
23300;SDS011;11819;51.394;12.340;2023-03-01T00:01:00;27.23;;;16.77;;
23300;SDS011;11819;51.394;12.340;2023-03-01T00:03:30;25.77;;;16.23;;
23300;SDS011;11819;51.394;12.340;2023-03-01T00:05:57;27.23;;;16.30;;
23300;SDS011;11819;51.394;12.340;2023-03-01T00:08:23;27.23;;;16.47;;
23300;SDS011;11819;51.394;12.340;2023-03-01T00:10:49;27.20;;;16.27;;
23300;SDS011;11819;51.394;12.340;2023-03-01T00:13:24;28.20;;;17.30;;
23300;SDS011;11819;51.394;12.340;2023-03-01T00:15:51;27.20;;;16.17;;
23300;SDS011;11819;51.394;12.340;2023-03-01T00:18:16;27.70;;;16.90;;
23300;SDS011;11819;51.394;12.340;2023-03-01T00:20:48;26.07;;;16.03;;
23300;SDS011;11819;51.394;12.340;2023-03-01T00:23:15;29.73;;;17.13;;
23300;SDS011;11819;51.394;12.340;2023-03-01T00:25:42;27.43;;;16.53;;
23300;SDS011;11819;51.394;12.340;2023-03-01T00:28:08;26.67;;;17.17;;
23300;SDS011;11819;51.394;12.340;2023-03-01T00:30:34;26.60;;;16.00;;
23300;SDS011;11819;51.394;12.340;2023-03-01T00:33:00;27.00;;;16.43;;
23300;SDS011;11819;51.394;12.340;2023-03-01T00:35:25;24.03;;;15.07;;
23300;SDS011;11819;51.394;12.340;2023-03-01T00:37:51;27.53;;;16.07;;
23300;SDS011;11819;51.394;12.340;2023-03-01T00:40:26;26.40;;;14.87;;
23300;SDS011;11819;51.394;12.340;2023-03-01T00:42:54;25.97;;;15.70;;
23300;SDS011;11819;51.394;12.340;2023-03-01T00:45:20;26.60;;;15.80;;
23300;SDS011;11819;51.394;12.340;2023-03-01T00:47:47;30.97;;;16.30;;
23300;SDS011;11819;51.394;12.340;2023-03-01T00:50:13;23.60;;;14.80;;
23300;SDS011;11819;51.394;12.340;2023-03-01T00:52:44;27.13;;;16.47;;
23300;SDS011;11819;51.394;12.340;2023-03-01T00:55:11;29.80;;;16.53;;
23300;SDS011;11819;51.394;12.340;2023-03-01T00:57:37;26.57;;;15.63;;
23300;SDS011;11819;51.394;12.340;2023-03-01T01:00:04;26.83;;;15.77;;
23300;SDS011;11819;51.394;12.340;2023-03-01T01:02:32;26.17;;;16.03;;
23300;SDS011;11819;51.394;12.340;2023-03-01T01:04:59;25.33;;;16.20;;
23300;SDS011;11819;51.394;12.340;2023-03-01T01:07:25;24.20;;;14.87;;
23300;SDS011;11819;51.394;12.340;2023-03-01T01:09:51;23.90;;;15.00;;
23300;SDS011;11819;51.394;12.340;2023-03-01T01:12:17;24.50;;;15.20;;
23300;SDS011;11819;51.394;12.340;2023-03-01T01:14:42;24.43;;;14.97;;
23300;SDS011;11819;51.394;12.340;2023-03-01T01:17:08;26.03;;;15.57;;
23300;SDS011;11819;51.394;12.340;2023-03-01T01:19:33;24.93;;;15.37;;
23300;SDS011;11819;51.394;12.340;2023-03-01T01:21:59;25.33;;;14.77;;
23300;SDS011;11819;51.394;12.340;2023-03-01T01:24:26;23.13;;;14.20;;
23300;SDS011;11819;51.394;12.340;2023-03-01T01:26:51;25.10;;;14.07;;
23300;SDS011;11819;51.394;12.340;2023-03-01T01:29:17;22.23;;;14.00;;
23300;SDS011;11819;51.394;12.340;2023-03-01T01:31:46;24.50;;;15.23;;
23300;SDS011;11819;51.394;12.340;2023-03-01T01:34:13;23.17;;;15.63;;
23300;SDS011;11819;51.394;12.340;2023-03-01T01:36:41;24.67;;;14.67;;
23300;SDS011;11819;51.394;12.340;2023-03-01T01:39:08;21.97;;;13.63;;
23300;SDS011;11819;51.394;12.340;2023-03-01T01:41:38;22.50;;;13.53;;
23300;SDS011;11819;51.394;12.340;2023-03-01T01:49:32;24.93;;;13.77;;
23300;SDS011;11819;51.394;12.340;2023-03-01T01:52:09;24.17;;;14.53;;
23300;SDS011;11819;51.394;12.340;2023-03-01T01:54:45;26.37;;;15.67;;
23300;SDS011;11819;51.394;12.340;2023-03-01T01:57:22;24.37;;;14.80;;
23300;SDS011;11819;51.394;12.340;2023-03-01T01:59:56;22.03;;;13.80;;
23300;SDS011;11819;51.394;12.340;2023-03-01T02:02:24;27.57;;;14.53;;
23300;SDS011;11819;51.394;12.340;2023-03-01T02:04:52;23.57;;;14.70;;
23300;SDS011;11819;51.394;12.340;2023-03-01T02:07:28;29.13;;;15.30;;
23300;SDS011;11819;51.394;12.340;2023-03-01T02:09:56;22.67;;;14.23;;
23300;SDS011;11819;51.394;12.340;2023-03-01T02:12:23;26.23;;;14.13;;
23300;SDS011;11819;51.394;12.340;2023-03-01T02:14:50;23.47;;;14.80;;
23300;SDS011;11819;51.394;12.340;2023-03-01T02:17:16;23.83;;;14.57;;
23300;SDS011;11819;51.394;12.340;2023-03-01T02:22:39;23.60;;;14.50;;
23300;SDS011;11819;51.394;12.340;2023-03-01T02:30:42;23.87;;;13.73;;
23300;SDS011;11819;51.394;12.340;2023-03-01T02:33:29;25.83;;;14.83;;
23300;SDS011;11819;51.394;12.340;2023-03-01T02:36:03;23.87;;;14.37;;
23300;SDS011;11819;51.394;12.340;2023-03-01T02:38:34;23.23;;;14.20;;
23300;SDS011;11819;51.394;12.340;2023-03-01T02:41:00;22.30;;;13.70;;
23300;SDS011;11819;51.394;12.340;2023-03-01T02:43:31;23.30;;;14.33;;
23300;SDS011;11819;51.394;12.340;2023-03-01T02:46:05;22.50;;;14.60;;
23300;SDS011;11819;51.394;12.340;2023-03-01T02:48:44;26.20;;;14.87;;
23300;SDS011;11819;51.394;12.340;2023-03-01T02:56:51;22.85;;;13.80;;
23300;SDS011;11819;51.394;12.340;2023-03-01T02:59:21;25.90;;;14.20;;
23300;SDS011;11819;51.394;12.340;2023-03-01T03:01:50;26.40;;;14.97;;
23300;SDS011;11819;51.394;12.340;2023-03-01T03:04:16;25.67;;;14.03;;
23300;SDS011;11819;51.394;12.340;2023-03-01T03:06:45;23.97;;;13.23;;
23300;SDS011;11819;51.394;12.340;2023-03-01T03:09:13;21.37;;;13.13;;
23300;SDS011;11819;51.394;12.340;2023-03-01T03:11:39;26.47;;;14.30;;
23300;SDS011;11819;51.394;12.340;2023-03-01T03:14:10;23.13;;;14.03;;
23300;SDS011;11819;51.394;12.340;2023-03-01T03:16:43;25.27;;;14.47;;
23300;SDS011;11819;51.394;12.340;2023-03-01T03:19:14;23.57;;;14.00;;
23300;SDS011;11819;51.394;12.340;2023-03-01T03:21:41;22.33;;;14.33;;
23300;SDS011;11819;51.394;12.340;2023-03-01T03:24:07;25.67;;;13.67;;
23300;SDS011;11819;51.394;12.340;2023-03-01T03:26:33;27.33;;;14.20;;
23300;SDS011;11819;51.394;12.340;2023-03-01T03:28:58;21.73;;;13.67;;
23300;SDS011;11819;51.394;12.340;2023-03-01T03:31:24;25.83;;;12.97;;
23300;SDS011;11819;51.394;12.340;2023-03-01T03:33:54;22.67;;;13.97;;
23300;SDS011;11819;51.394;12.340;2023-03-01T03:36:25;23.87;;;13.80;;
23300;SDS011;11819;51.394;12.340;2023-03-01T03:38:51;21.80;;;13.63;;
23300;SDS011;11819;51.394;12.340;2023-03-01T03:41:17;26.27;;;13.90;;
23300;SDS011;11819;51.394;12.340;2023-03-01T03:43:43;23.53;;;14.40;;
23300;SDS011;11819;51.394;12.340;2023-03-01T03:46:10;23.43;;;13.80;;
23300;SDS011;11819;51.394;12.340;2023-03-01T03:48:37;22.87;;;14.03;;
23300;SDS011;11819;51.394;12.340;2023-03-01T03:51:05;21.60;;;13.60;;
23300;SDS011;11819;51.394;12.340;2023-03-01T03:53:31;23.07;;;13.30;;
23300;SDS011;11819;51.394;12.340;2023-03-01T03:55:57;24.40;;;13.90;;
23300;SDS011;11819;51.394;12.340;2023-03-01T03:58:24;25.00;;;13.93;;
23300;SDS011;11819;51.394;12.340;2023-03-01T04:00:54;24.77;;;14.40;;
23300;SDS011;11819;51.394;12.340;2023-03-01T04:03:21;23.17;;;13.23;;
23300;SDS011;11819;51.394;12.340;2023-03-01T04:05:50;25.20;;;14.00;;
23300;SDS011;11819;51.394;12.340;2023-03-01T04:08:17;21.83;;;13.03;;
23300;SDS011;11819;51.394;12.340;2023-03-01T04:10:45;26.90;;;14.17;;
23300;SDS011;11819;51.394;12.340;2023-03-01T04:13:14;28.00;;;14.50;;
23300;SDS011;11819;51.394;12.340;2023-03-01T04:15:42;23.67;;;13.33;;
23300;SDS011;11819;51.394;12.340;2023-03-01T04:18:14;26.10;;;15.37;;
23300;SDS011;11819;51.394;12.340;2023-03-01T04:20:42;24.33;;;13.67;;
23300;SDS011;11819;51.394;12.340;2023-03-01T04:23:11;22.27;;;13.50;;
23300;SDS011;11819;51.394;12.340;2023-03-01T04:25:54;22.93;;;12.87;;
23300;SDS011;11819;51.394;12.340;2023-03-01T04:28:23;22.37;;;13.00;;
23300;SDS011;11819;51.394;12.340;2023-03-01T04:30:57;22.93;;;13.10;;
23300;SDS011;11819;51.394;12.340;2023-03-01T04:33:24;21.17;;;13.00;;
23300;SDS011;11819;51.394;12.340;2023-03-01T04:35:50;24.40;;;13.80;;
23300;SDS011;11819;51.394;12.340;2023-03-01T04:38:17;24.70;;;13.33;;
23300;SDS011;11819;51.394;12.340;2023-03-01T04:40:43;23.63;;;13.77;;
23300;SDS011;11819;51.394;12.340;2023-03-01T04:43:11;24.00;;;13.33;;
23300;SDS011;11819;51.394;12.340;2023-03-01T04:45:40;22.40;;;12.40;;
23300;SDS011;11819;51.394;12.340;2023-03-01T04:48:06;19.33;;;12.10;;
23300;SDS011;11819;51.394;12.340;2023-03-01T04:50:32;22.77;;;12.80;;
23300;SDS011;11819;51.394;12.340;2023-03-01T04:52:58;23.63;;;12.23;;
23300;SDS011;11819;51.394;12.340;2023-03-01T04:55:27;22.00;;;12.50;;
23300;SDS011;11819;51.394;12.340;2023-03-01T04:57:56;24.43;;;12.83;;
23300;SDS011;11819;51.394;12.340;2023-03-01T05:00:23;19.77;;;12.00;;
23300;SDS011;11819;51.394;12.340;2023-03-01T05:02:50;23.27;;;12.97;;
23300;SDS011;11819;51.394;12.340;2023-03-01T05:05:22;24.07;;;13.00;;
23300;SDS011;11819;51.394;12.340;2023-03-01T05:07:54;21.03;;;12.70;;
23300;SDS011;11819;51.394;12.340;2023-03-01T05:10:24;21.57;;;11.93;;
23300;SDS011;11819;51.394;12.340;2023-03-01T05:12:52;21.00;;;12.73;;
23300;SDS011;11819;51.394;12.340;2023-03-01T05:15:18;20.33;;;12.53;;
23300;SDS011;11819;51.394;12.340;2023-03-01T05:17:46;21.77;;;12.10;;
23300;SDS011;11819;51.394;12.340;2023-03-01T05:20:13;20.53;;;11.90;;
23300;SDS011;11819;51.394;12.340;2023-03-01T05:22:38;21.87;;;12.33;;
23300;SDS011;11819;51.394;12.340;2023-03-01T05:25:05;20.67;;;11.43;;
23300;SDS011;11819;51.394;12.340;2023-03-01T05:27:32;22.27;;;12.27;;
23300;SDS011;11819;51.394;12.340;2023-03-01T05:29:58;19.67;;;12.00;;
23300;SDS011;11819;51.394;12.340;2023-03-01T05:32:23;22.80;;;12.60;;
23300;SDS011;11819;51.394;12.340;2023-03-01T05:34:49;23.00;;;13.03;;
23300;SDS011;11819;51.394;12.340;2023-03-01T05:37:17;21.60;;;12.50;;
23300;SDS011;11819;51.394;12.340;2023-03-01T05:39:43;23.00;;;12.70;;
23300;SDS011;11819;51.394;12.340;2023-03-01T05:42:09;20.53;;;11.80;;
23300;SDS011;11819;51.394;12.340;2023-03-01T05:44:36;22.20;;;12.43;;
23300;SDS011;11819;51.394;12.340;2023-03-01T05:47:01;21.13;;;12.60;;
23300;SDS011;11819;51.394;12.340;2023-03-01T05:49:27;24.50;;;12.60;;
23300;SDS011;11819;51.394;12.340;2023-03-01T05:51:53;20.83;;;11.67;;
23300;SDS011;11819;51.394;12.340;2023-03-01T05:54:20;21.17;;;12.90;;
23300;SDS011;11819;51.394;12.340;2023-03-01T05:56:47;21.67;;;12.00;;
23300;SDS011;11819;51.394;12.340;2023-03-01T05:59:14;25.00;;;12.70;;
23300;SDS011;11819;51.394;12.340;2023-03-01T06:01:41;21.57;;;13.10;;
23300;SDS011;11819;51.394;12.340;2023-03-01T06:04:07;22.10;;;11.70;;
23300;SDS011;11819;51.394;12.340;2023-03-01T06:06:33;21.50;;;12.60;;
23300;SDS011;11819;51.394;12.340;2023-03-01T06:09:00;22.43;;;12.23;;
23300;SDS011;11819;51.394;12.340;2023-03-01T06:11:25;24.27;;;12.10;;
23300;SDS011;11819;51.394;12.340;2023-03-01T06:13:53;23.10;;;12.67;;
23300;SDS011;11819;51.394;12.340;2023-03-01T06:16:19;21.07;;;12.40;;
23300;SDS011;11819;51.394;12.340;2023-03-01T06:18:44;21.37;;;13.00;;
23300;SDS011;11819;51.394;12.340;2023-03-01T06:21:11;21.60;;;12.07;;
23300;SDS011;11819;51.394;12.340;2023-03-01T06:23:37;25.03;;;13.77;;
23300;SDS011;11819;51.394;12.340;2023-03-01T06:26:06;24.07;;;13.07;;
23300;SDS011;11819;51.394;12.340;2023-03-01T06:28:34;20.20;;;11.43;;
23300;SDS011;11819;51.394;12.340;2023-03-01T06:31:00;24.10;;;12.50;;
23300;SDS011;11819;51.394;12.340;2023-03-01T06:33:27;21.97;;;12.07;;
23300;SDS011;11819;51.394;12.340;2023-03-01T06:35:55;20.60;;;13.80;;
23300;SDS011;11819;51.394;12.340;2023-03-01T06:38:22;21.93;;;12.60;;
23300;SDS011;11819;51.394;12.340;2023-03-01T06:40:52;21.10;;;12.20;;
23300;SDS011;11819;51.394;12.340;2023-03-01T06:43:19;21.20;;;12.57;;
23300;SDS011;11819;51.394;12.340;2023-03-01T06:45:45;20.13;;;11.67;;
23300;SDS011;11819;51.394;12.340;2023-03-01T06:48:10;22.27;;;12.40;;
23300;SDS011;11819;51.394;12.340;2023-03-01T06:50:36;22.30;;;12.87;;
23300;SDS011;11819;51.394;12.340;2023-03-01T06:53:02;23.80;;;13.97;;
23300;SDS011;11819;51.394;12.340;2023-03-01T06:55:28;22.77;;;12.87;;
23300;SDS011;11819;51.394;12.340;2023-03-01T06:57:55;23.47;;;13.57;;
23300;SDS011;11819;51.394;12.340;2023-03-01T07:00:21;23.43;;;13.63;;
23300;SDS011;11819;51.394;12.340;2023-03-01T07:02:47;22.70;;;13.27;;
23300;SDS011;11819;51.394;12.340;2023-03-01T07:05:14;26.07;;;13.17;;
23300;SDS011;11819;51.394;12.340;2023-03-01T07:07:40;23.03;;;13.40;;
23300;SDS011;11819;51.394;12.340;2023-03-01T07:10:06;23.17;;;14.30;;
23300;SDS011;11819;51.394;12.340;2023-03-01T07:12:33;24.17;;;13.43;;
23300;SDS011;11819;51.394;12.340;2023-03-01T07:15:00;21.80;;;13.97;;
23300;SDS011;11819;51.394;12.340;2023-03-01T07:17:26;22.93;;;13.70;;
23300;SDS011;11819;51.394;12.340;2023-03-01T07:19:51;23.50;;;14.13;;
23300;SDS011;11819;51.394;12.340;2023-03-01T07:22:17;26.87;;;13.97;;
23300;SDS011;11819;51.394;12.340;2023-03-01T07:24:42;20.90;;;13.40;;
23300;SDS011;11819;51.394;12.340;2023-03-01T07:27:08;26.40;;;14.77;;
23300;SDS011;11819;51.394;12.340;2023-03-01T07:29:35;24.87;;;14.03;;
23300;SDS011;11819;51.394;12.340;2023-03-01T07:32:04;24.53;;;14.77;;
23300;SDS011;11819;51.394;12.340;2023-03-01T07:34:30;25.23;;;14.43;;
23300;SDS011;11819;51.394;12.340;2023-03-01T07:36:56;27.00;;;15.40;;
23300;SDS011;11819;51.394;12.340;2023-03-01T07:39:22;27.27;;;14.37;;
23300;SDS011;11819;51.394;12.340;2023-03-01T07:41:51;26.10;;;15.67;;
23300;SDS011;11819;51.394;12.340;2023-03-01T07:44:20;26.30;;;14.70;;
23300;SDS011;11819;51.394;12.340;2023-03-01T07:46:46;26.13;;;14.87;;
23300;SDS011;11819;51.394;12.340;2023-03-01T07:49:12;28.50;;;16.03;;
23300;SDS011;11819;51.394;12.340;2023-03-01T07:51:38;25.63;;;14.83;;
23300;SDS011;11819;51.394;12.340;2023-03-01T07:54:03;26.90;;;15.87;;
23300;SDS011;11819;51.394;12.340;2023-03-01T07:56:29;26.00;;;15.50;;
23300;SDS011;11819;51.394;12.340;2023-03-01T07:58:55;24.53;;;14.67;;
23300;SDS011;11819;51.394;12.340;2023-03-01T08:01:20;25.77;;;15.53;;
23300;SDS011;11819;51.394;12.340;2023-03-01T08:03:47;26.47;;;15.27;;
23300;SDS011;11819;51.394;12.340;2023-03-01T08:06:14;29.93;;;16.80;;
23300;SDS011;11819;51.394;12.340;2023-03-01T08:08:41;30.30;;;15.87;;
23300;SDS011;11819;51.394;12.340;2023-03-01T08:11:07;25.83;;;16.10;;
23300;SDS011;11819;51.394;12.340;2023-03-01T08:13:35;27.70;;;15.60;;
23300;SDS011;11819;51.394;12.340;2023-03-01T08:16:01;26.40;;;15.33;;
23300;SDS011;11819;51.394;12.340;2023-03-01T08:18:31;31.80;;;15.97;;
23300;SDS011;11819;51.394;12.340;2023-03-01T08:21:08;27.40;;;16.87;;
23300;SDS011;11819;51.394;12.340;2023-03-01T08:23:39;26.90;;;15.60;;
23300;SDS011;11819;51.394;12.340;2023-03-01T08:26:09;27.17;;;14.80;;
23300;SDS011;11819;51.394;12.340;2023-03-01T08:28:40;28.07;;;15.70;;
23300;SDS011;11819;51.394;12.340;2023-03-01T08:31:30;28.20;;;15.17;;
23300;SDS011;11819;51.394;12.340;2023-03-01T08:33:56;28.30;;;15.33;;
23300;SDS011;11819;51.394;12.340;2023-03-01T08:36:25;30.80;;;16.53;;
23300;SDS011;11819;51.394;12.340;2023-03-01T08:39:00;28.93;;;15.77;;
23300;SDS011;11819;51.394;12.340;2023-03-01T08:41:26;29.00;;;15.43;;
23300;SDS011;11819;51.394;12.340;2023-03-01T08:43:53;28.73;;;15.80;;
23300;SDS011;11819;51.394;12.340;2023-03-01T08:46:23;32.03;;;17.13;;
23300;SDS011;11819;51.394;12.340;2023-03-01T08:48:50;31.00;;;16.53;;
23300;SDS011;11819;51.394;12.340;2023-03-01T08:51:18;30.60;;;15.87;;
23300;SDS011;11819;51.394;12.340;2023-03-01T08:53:47;30.07;;;16.73;;
23300;SDS011;11819;51.394;12.340;2023-03-01T08:56:13;30.90;;;16.53;;
23300;SDS011;11819;51.394;12.340;2023-03-01T08:58:39;27.20;;;15.77;;
23300;SDS011;11819;51.394;12.340;2023-03-01T09:01:08;27.43;;;15.83;;
23300;SDS011;11819;51.394;12.340;2023-03-01T09:03:36;30.00;;;16.83;;
23300;SDS011;11819;51.394;12.340;2023-03-01T09:06:02;26.30;;;16.67;;
23300;SDS011;11819;51.394;12.340;2023-03-01T09:08:29;28.47;;;16.50;;
23300;SDS011;11819;51.394;12.340;2023-03-01T09:10:55;30.93;;;16.20;;
23300;SDS011;11819;51.394;12.340;2023-03-01T09:13:21;26.00;;;15.93;;
23300;SDS011;11819;51.394;12.340;2023-03-01T09:15:50;31.30;;;16.87;;
23300;SDS011;11819;51.394;12.340;2023-03-01T09:18:17;29.83;;;16.83;;
23300;SDS011;11819;51.394;12.340;2023-03-01T09:20:43;33.57;;;16.57;;
23300;SDS011;11819;51.394;12.340;2023-03-01T09:23:09;34.13;;;18.70;;
23300;SDS011;11819;51.394;12.340;2023-03-01T09:25:34;28.23;;;17.47;;
23300;SDS011;11819;51.394;12.340;2023-03-01T09:28:02;31.53;;;17.93;;
23300;SDS011;11819;51.394;12.340;2023-03-01T09:30:28;32.80;;;17.10;;
23300;SDS011;11819;51.394;12.340;2023-03-01T09:32:55;29.33;;;17.37;;
23300;SDS011;11819;51.394;12.340;2023-03-01T09:35:22;35.07;;;18.00;;
23300;SDS011;11819;51.394;12.340;2023-03-01T09:37:49;31.20;;;17.80;;
23300;SDS011;11819;51.394;12.340;2023-03-01T09:40:21;32.37;;;18.33;;
23300;SDS011;11819;51.394;12.340;2023-03-01T09:42:52;32.13;;;17.73;;
23300;SDS011;11819;51.394;12.340;2023-03-01T09:45:22;31.27;;;17.47;;
23300;SDS011;11819;51.394;12.340;2023-03-01T09:47:54;30.97;;;16.93;;
23300;SDS011;11819;51.394;12.340;2023-03-01T09:50:21;33.70;;;18.13;;
23300;SDS011;11819;51.394;12.340;2023-03-01T09:58:47;31.33;;;18.07;;
23300;SDS011;11819;51.394;12.340;2023-03-01T10:06:31;30.73;;;17.50;;
23300;SDS011;11819;51.394;12.340;2023-03-01T10:09:00;29.07;;;17.20;;
23300;SDS011;11819;51.394;12.340;2023-03-01T10:11:36;34.97;;;17.40;;
23300;SDS011;11819;51.394;12.340;2023-03-01T10:17:02;34.27;;;19.03;;
23300;SDS011;11819;51.394;12.340;2023-03-01T10:19:38;37.20;;;20.50;;
23300;SDS011;11819;51.394;12.340;2023-03-01T10:22:19;36.63;;;19.47;;
23300;SDS011;11819;51.394;12.340;2023-03-01T10:24:48;35.30;;;18.63;;
23300;SDS011;11819;51.394;12.340;2023-03-01T10:27:24;34.37;;;18.33;;
23300;SDS011;11819;51.394;12.340;2023-03-01T10:29:59;33.73;;;19.17;;
23300;SDS011;11819;51.394;12.340;2023-03-01T10:32:44;36.83;;;20.43;;
23300;SDS011;11819;51.394;12.340;2023-03-01T10:37:56;32.17;;;18.47;;
23300;SDS011;11819;51.394;12.340;2023-03-01T10:40:31;34.10;;;19.10;;
23300;SDS011;11819;51.394;12.340;2023-03-01T10:42:58;33.27;;;18.63;;
23300;SDS011;11819;51.394;12.340;2023-03-01T10:50:51;34.73;;;19.33;;
23300;SDS011;11819;51.394;12.340;2023-03-01T10:53:35;33.63;;;20.57;;
23300;SDS011;11819;51.394;12.340;2023-03-01T10:58:32;34.87;;;19.80;;
23300;SDS011;11819;51.394;12.340;2023-03-01T11:01:00;30.90;;;18.50;;
23300;SDS011;11819;51.394;12.340;2023-03-01T11:03:29;33.03;;;17.60;;
23300;SDS011;11819;51.394;12.340;2023-03-01T11:06:04;33.07;;;18.67;;
23300;SDS011;11819;51.394;12.340;2023-03-01T11:08:45;29.37;;;17.27;;
23300;SDS011;11819;51.394;12.340;2023-03-01T11:13:39;33.67;;;17.23;;
23300;SDS011;11819;51.394;12.340;2023-03-01T11:16:31;32.40;;;17.87;;
23300;SDS011;11819;51.394;12.340;2023-03-01T11:21:39;30.70;;;17.63;;
23300;SDS011;11819;51.394;12.340;2023-03-01T11:24:16;29.70;;;17.23;;
23300;SDS011;11819;51.394;12.340;2023-03-01T11:26:51;30.00;;;17.13;;
23300;SDS011;11819;51.394;12.340;2023-03-01T11:32:07;33.17;;;18.63;;
23300;SDS011;11819;51.394;12.340;2023-03-01T11:34:37;32.13;;;18.00;;
23300;SDS011;11819;51.394;12.340;2023-03-01T11:37:10;31.60;;;17.50;;
23300;SDS011;11819;51.394;12.340;2023-03-01T11:40:03;32.43;;;18.30;;
23300;SDS011;11819;51.394;12.340;2023-03-01T11:51:22;28.50;;;15.80;;
23300;SDS011;11819;51.394;12.340;2023-03-01T11:54:03;26.37;;;14.27;;
23300;SDS011;11819;51.394;12.340;2023-03-01T11:56:41;26.07;;;15.60;;
23300;SDS011;11819;51.394;12.340;2023-03-01T11:59:19;23.87;;;14.60;;
23300;SDS011;11819;51.394;12.340;2023-03-01T12:02:20;20.20;;;11.70;;
23300;SDS011;11819;51.394;12.340;2023-03-01T12:05:09;21.83;;;12.17;;
23300;SDS011;11819;51.394;12.340;2023-03-01T12:11:00;24.50;;;13.47;;
23300;SDS011;11819;51.394;12.340;2023-03-01T12:13:44;26.10;;;14.07;;
23300;SDS011;11819;51.394;12.340;2023-03-01T12:16:25;25.00;;;13.50;;
23300;SDS011;11819;51.394;12.340;2023-03-01T12:24:52;24.53;;;14.33;;
23300;SDS011;11819;51.394;12.340;2023-03-01T12:30:32;23.57;;;14.60;;
23300;SDS011;11819;51.394;12.340;2023-03-01T12:33:20;28.10;;;15.70;;
23300;SDS011;11819;51.394;12.340;2023-03-01T12:41:38;24.07;;;14.70;;
23300;SDS011;11819;51.394;12.340;2023-03-01T12:44:32;26.67;;;16.00;;
23300;SDS011;11819;51.394;12.340;2023-03-01T12:47:23;26.07;;;15.03;;
23300;SDS011;11819;51.394;12.340;2023-03-01T12:50:05;23.67;;;14.80;;
23300;SDS011;11819;51.394;12.340;2023-03-01T12:52:52;24.67;;;14.63;;
23300;SDS011;11819;51.394;12.340;2023-03-01T12:55:37;25.70;;;15.87;;
23300;SDS011;11819;51.394;12.340;2023-03-01T12:58:13;24.97;;;15.00;;
23300;SDS011;11819;51.394;12.340;2023-03-01T13:01:00;25.30;;;14.77;;
23300;SDS011;11819;51.394;12.340;2023-03-01T13:09:14;24.33;;;15.33;;
23300;SDS011;11819;51.394;12.340;2023-03-01T13:12:01;24.27;;;14.33;;
23300;SDS011;11819;51.394;12.340;2023-03-01T13:16:56;26.10;;;15.10;;
23300;SDS011;11819;51.394;12.340;2023-03-01T13:19:25;21.43;;;14.23;;
23300;SDS011;11819;51.394;12.340;2023-03-01T13:21:57;19.37;;;13.00;;
23300;SDS011;11819;51.394;12.340;2023-03-01T13:27:10;24.37;;;13.00;;
23300;SDS011;11819;51.394;12.340;2023-03-01T13:29:55;23.52;;;13.55;;
23300;SDS011;11819;51.394;12.340;2023-03-01T13:37:48;20.65;;;12.95;;
23300;SDS011;11819;51.394;12.340;2023-03-01T13:42:44;21.45;;;12.93;;
23300;SDS011;11819;51.394;12.340;2023-03-01T13:50:50;18.77;;;12.52;;
23300;SDS011;11819;51.394;12.340;2023-03-01T13:53:22;18.38;;;11.45;;
23300;SDS011;11819;51.394;12.340;2023-03-01T13:58:58;18.10;;;10.48;;
23300;SDS011;11819;51.394;12.340;2023-03-01T14:01:31;15.02;;;10.65;;
23300;SDS011;11819;51.394;12.340;2023-03-01T14:03:58;16.38;;;10.75;;
23300;SDS011;11819;51.394;12.340;2023-03-01T14:06:27;17.67;;;10.88;;
23300;SDS011;11819;51.394;12.340;2023-03-01T14:09:05;16.90;;;10.38;;
23300;SDS011;11819;51.394;12.340;2023-03-01T14:19:47;17.85;;;11.32;;
23300;SDS011;11819;51.394;12.340;2023-03-01T14:22:30;15.35;;;10.63;;
23300;SDS011;11819;51.394;12.340;2023-03-01T14:25:00;16.40;;;11.23;;
23300;SDS011;11819;51.394;12.340;2023-03-01T14:27:36;17.80;;;11.48;;
23300;SDS011;11819;51.394;12.340;2023-03-01T14:33:17;15.82;;;11.18;;
23300;SDS011;11819;51.394;12.340;2023-03-01T14:35:51;20.75;;;11.93;;
23300;SDS011;11819;51.394;12.340;2023-03-01T14:38:30;13.55;;;10.02;;
23300;SDS011;11819;51.394;12.340;2023-03-01T14:41:03;17.48;;;11.00;;
23300;SDS011;11819;51.394;12.340;2023-03-01T14:43:33;16.50;;;10.70;;
23300;SDS011;11819;51.394;12.340;2023-03-01T14:46:00;14.90;;;10.40;;
23300;SDS011;11819;51.394;12.340;2023-03-01T14:48:26;15.73;;;10.00;;
23300;SDS011;11819;51.394;12.340;2023-03-01T14:50:54;15.57;;;9.90;;
23300;SDS011;11819;51.394;12.340;2023-03-01T14:53:24;17.73;;;10.18;;
23300;SDS011;11819;51.394;12.340;2023-03-01T14:55:55;14.95;;;9.88;;
23300;SDS011;11819;51.394;12.340;2023-03-01T14:58:24;14.88;;;9.27;;
23300;SDS011;11819;51.394;12.340;2023-03-01T15:00:52;14.45;;;9.02;;
23300;SDS011;11819;51.394;12.340;2023-03-01T15:03:33;14.68;;;9.50;;
23300;SDS011;11819;51.394;12.340;2023-03-01T15:06:03;16.75;;;10.18;;
23300;SDS011;11819;51.394;12.340;2023-03-01T15:08:30;15.70;;;9.40;;
23300;SDS011;11819;51.394;12.340;2023-03-01T15:11:04;16.63;;;9.10;;
23300;SDS011;11819;51.394;12.340;2023-03-01T15:13:41;15.90;;;8.80;;
23300;SDS011;11819;51.394;12.340;2023-03-01T15:16:11;15.52;;;9.82;;
23300;SDS011;11819;51.394;12.340;2023-03-01T15:21:42;14.65;;;9.52;;
23300;SDS011;11819;51.394;12.340;2023-03-01T15:26:49;13.82;;;8.55;;
23300;SDS011;11819;51.394;12.340;2023-03-01T15:29:19;13.30;;;7.90;;
23300;SDS011;11819;51.394;12.340;2023-03-01T15:32:05;14.73;;;8.37;;
23300;SDS011;11819;51.394;12.340;2023-03-01T15:34:49;15.03;;;8.80;;
23300;SDS011;11819;51.394;12.340;2023-03-01T15:40:25;14.87;;;8.00;;
23300;SDS011;11819;51.394;12.340;2023-03-01T15:43:03;14.67;;;7.40;;
23300;SDS011;11819;51.394;12.340;2023-03-01T15:45:31;13.90;;;7.77;;
23300;SDS011;11819;51.394;12.340;2023-03-01T15:48:06;12.27;;;7.87;;
23300;SDS011;11819;51.394;12.340;2023-03-01T15:50:42;11.50;;;7.87;;
23300;SDS011;11819;51.394;12.340;2023-03-01T15:53:13;14.53;;;8.17;;
23300;SDS011;11819;51.394;12.340;2023-03-01T15:55:40;15.40;;;9.00;;
23300;SDS011;11819;51.394;12.340;2023-03-01T15:58:12;12.10;;;7.63;;
23300;SDS011;11819;51.394;12.340;2023-03-01T16:00:40;15.40;;;9.27;;
23300;SDS011;11819;51.394;12.340;2023-03-01T16:03:06;13.17;;;8.03;;
23300;SDS011;11819;51.394;12.340;2023-03-01T16:05:34;16.60;;;8.20;;
23300;SDS011;11819;51.394;12.340;2023-03-01T16:08:01;14.93;;;8.93;;
23300;SDS011;11819;51.394;12.340;2023-03-01T16:10:27;13.17;;;8.03;;
23300;SDS011;11819;51.394;12.340;2023-03-01T16:12:53;11.70;;;7.90;;
23300;SDS011;11819;51.394;12.340;2023-03-01T16:17:53;15.27;;;8.50;;
23300;SDS011;11819;51.394;12.340;2023-03-01T16:20:20;16.40;;;8.80;;
23300;SDS011;11819;51.394;12.340;2023-03-01T16:22:49;15.70;;;9.30;;
23300;SDS011;11819;51.394;12.340;2023-03-01T16:25:16;14.83;;;8.67;;
23300;SDS011;11819;51.394;12.340;2023-03-01T16:27:45;15.83;;;8.90;;
23300;SDS011;11819;51.394;12.340;2023-03-01T16:30:13;14.60;;;9.03;;
23300;SDS011;11819;51.394;12.340;2023-03-01T16:32:41;14.57;;;8.90;;
23300;SDS011;11819;51.394;12.340;2023-03-01T16:35:09;14.23;;;8.50;;